»·PEaware :: N13M KAVX-KSAN

N13M :: KAVX-KSAN

FLIGHT INFORMATION

Flight Status: Arrived
Operator: Privately registered:
United States
More flights under this callsign
Pilot: Zhuojun Y. (28503)
Aircraft: PIPER PA-31T-620 CHEYENNE 2
(PAY2)
More flights by this aircraft type
Origin: KAVX Catalina
United States
Destination: KSAN San Diego Intl-Lindbergh
United States
More flights between these airports :: More routes between these airports
Route: SXC V208 OCN V23 MZB
File this flight plan on PilotEdge
Remarks: TEC route CSTP54
Altitude:
(Current/Filed)
9,000ft
Speed:
(Current/Filed)
200kts
Departed: 10-May-20 08:25 PM
Arrived: 10-May-20 09:47 PM
Distance/Time
Traveled:
74nm/1:21
Distance/Time
To Go:
Arrived

Flight Plot

Page will automatically refresh every two minutes.


Map Options




Map Legend


Flown Route
Filed Route
Departure Airport
Arrival Airport
Navaid (VOR, NDB)
Fix

Horizontal Profiles

Position Reports

Time Latitude Longitude Heading Altitude Ground
Speed
10-May-20 20:15 33.403881 -118.414879 254 1539ft 0kts
10-May-20 20:16 33.403881 -118.414879 254 1539ft 0kts
10-May-20 20:17 33.403881 -118.414879 254 1539ft 0kts
10-May-20 20:18 33.403881 -118.414879 254 1539ft 0kts
10-May-20 20:19 33.403881 -118.414879 254 1539ft 0kts
10-May-20 20:20 33.405328 -118.414464 57 1534ft 13kts
10-May-20 20:21 33.406985 -118.411743 58 1515ft 2kts
10-May-20 20:22 33.407132 -118.411443 49 1513ft 0kts
10-May-20 20:23 33.407146 -118.411431 28 1513ft 0kts
10-May-20 20:24 33.406540 -118.413146 234 1522ft 67kts
10-May-20 20:25 33.370578 -118.445744 204 1803ft 253kts
10-May-20 20:26 33.328670 -118.460111 46 2501ft 226kts
10-May-20 20:27 33.339383 -118.479047 340 5801ft 139kts
10-May-20 20:28 33.361237 -118.446938 57 5453ft 123kts
10-May-20 20:29 33.389057 -118.456173 1 4799ft 124kts
10-May-20 20:32 33.403881 -118.414878 254 1538ft 0kts
10-May-20 20:33 33.403881 -118.414878 254 1538ft 0kts
10-May-20 20:34 33.403881 -118.414878 254 1538ft 0kts
10-May-20 20:35 33.403881 -118.414878 254 1538ft 0kts
10-May-20 20:37 33.403881 -118.414878 254 1538ft 0kts
10-May-20 20:38 33.403881 -118.414879 254 1538ft 0kts
10-May-20 20:39 33.404275 -118.414998 357 1539ft 8kts
10-May-20 20:40 33.407123 -118.411498 50 1513ft 0kts
10-May-20 20:41 33.407212 -118.411389 27 1512ft 3kts
10-May-20 20:42 33.403264 -118.418484 235 1666ft 82kts
10-May-20 20:43 33.389561 -118.437654 203 3055ft 79kts
10-May-20 20:44 33.381250 -118.449913 312 4529ft 61kts
10-May-20 20:45 33.385763 -118.429222 135 5553ft 95kts
10-May-20 20:46 33.374584 -118.394559 116 5893ft 120kts
10-May-20 20:47 33.367513 -118.352486 98 5328ft 131kts
10-May-20 20:48 33.366438 -118.310422 111 4966ft 122kts
10-May-20 20:49 33.359416 -118.283084 97 4989ft 122kts
10-May-20 20:50 33.359397 -118.278718 93 4984ft 123kts
10-May-20 20:51 33.359428 -118.277590 92 4985ft 124kts
10-May-20 20:52 33.350948 -118.199880 120 4935ft 111kts
10-May-20 20:53 33.347404 -118.161989 93 4974ft 116kts
10-May-20 20:54 33.344365 -118.125691 105 5109ft 105kts
10-May-20 20:55 33.341849 -118.089214 78 4997ft 108kts
10-May-20 20:56 33.337237 -118.053358 90 4841ft 115kts
10-May-20 20:57 33.335573 -118.016226 101 5081ft 112kts
10-May-20 20:58 33.333325 -117.979009 96 5046ft 113kts
10-May-20 20:59 33.323242 -117.947236 94 5091ft 111kts
10-May-20 21:00 33.320520 -117.931515 125 5066ft 111kts
10-May-20 21:01 33.312300 -117.883960 110 4864ft 111kts
10-May-20 21:02 33.306223 -117.847489 120 5017ft 109kts
10-May-20 21:03 33.297346 -117.812649 105 5085ft 116kts
10-May-20 21:04 33.296834 -117.773062 94 5037ft 117kts
10-May-20 21:05 33.291213 -117.735000 104 5029ft 115kts
10-May-20 21:07 33.286845 -117.697613 112 5020ft 106kts
10-May-20 21:08 33.276683 -117.657010 108 5174ft 148kts
10-May-20 21:09 33.267971 -117.610705 102 5043ft 148kts
10-May-20 21:10 33.265170 -117.559029 87 4931ft 150kts
10-May-20 21:11 33.243371 -117.535573 218 4920ft 128kts
10-May-20 21:12 33.215951 -117.528423 140 4993ft 141kts
10-May-20 21:13 33.189620 -117.495375 136 4838ft 126kts
10-May-20 21:14 33.169799 -117.462687 133 5289ft 123kts
10-May-20 21:15 33.152960 -117.427540 116 5268ft 121kts
10-May-20 21:16 33.135337 -117.393843 141 4966ft 114kts
10-May-20 21:17 33.112203 -117.370433 149 5032ft 107kts
10-May-20 21:18 33.087584 -117.351098 156 4931ft 107kts
10-May-20 21:19 33.061450 -117.336246 167 4960ft 98kts
10-May-20 21:20 33.033448 -117.323919 168 5104ft 113kts
10-May-20 21:21 33.001555 -117.311226 167 5096ft 125kts
10-May-20 21:22 32.967369 -117.301620 173 5046ft 129kts
10-May-20 21:23 32.934854 -117.287936 166 5145ft 124kts
10-May-20 21:24 32.903474 -117.274111 168 5028ft 117kts
10-May-20 21:25 32.873505 -117.258847 163 5062ft 114kts
10-May-20 21:26 32.843987 -117.244672 143 4997ft 124kts
10-May-20 21:27 32.833846 -117.206481 120 5229ft 115kts
10-May-20 21:28 32.819551 -117.169701 121 5237ft 125kts
10-May-20 21:28 32.807034 -117.138591 118 5137ft 121kts
10-May-20 21:30 32.789169 -117.096777 119 4979ft 124kts
10-May-20 21:30 32.777339 -117.065952 123 5020ft 122kts
10-May-20 21:32 32.759461 -117.023494 119 5000ft 124kts
10-May-20 21:32 32.746991 -116.992679 122 5021ft 121kts
10-May-20 21:34 32.729840 -116.950438 121 5025ft 121kts
10-May-20 21:34 32.717744 -116.920135 117 5009ft 122kts
10-May-20 21:35 32.698862 -116.900245 233 4822ft 108kts
10-May-20 21:36 32.677552 -116.916869 216 4504ft 97kts
10-May-20 21:37 32.674761 -116.947376 284 4035ft 99kts
10-May-20 21:38 32.683441 -116.978437 273 3616ft 98kts
10-May-20 21:39 32.689469 -117.009254 278 3188ft 97kts
10-May-20 21:40 32.696380 -117.040610 283 2841ft 97kts
10-May-20 21:41 32.705654 -117.070728 277 2418ft 96kts
10-May-20 21:42 32.712836 -117.101474 288 1921ft 99kts
10-May-20 21:43 32.719161 -117.129881 279 1126ft 80kts
10-May-20 21:44 32.725093 -117.154374 281 652ft 71kts
10-May-20 21:45 32.730312 -117.176237 281 172ft 70kts
10-May-20 21:46 32.733829 -117.188177 21 20ft 16kts
10-May-20 21:47 32.733974 -117.188114 18 20ft 0kts
10-May-20 21:48 32.733689 -117.185493 107 20ft 14kts

Navigation Log

Ident Type
Flight plan parsing failed, navigation log unavailable